Time;durP1;ratioP1;P1;durP2;ratioP2;P2;SDS_P1;SDS_P2;PMS_P1;PMS_P2;Temp;Humidity;BMP_temperature;BMP_pressure;BME280_temperature;BME280_humidity;BME280_pressure;Samples;Min_cycle;Max_cycle;Signal;HPM_P1;HPM_P2
2023/08/13 00:01:12;;;;;;;19.77;5.22;;;;;;;;;;5031767;28;20026;-74
2023/08/13 00:03:38;;;;;;;17.00;5.13;;;;;;;;;;5044497;28;20086;-73
2023/08/13 00:06:04;;;;;;;16.85;5.03;;;;;;;;;;5059581;28;20033;-72
2023/08/13 00:08:30;;;;;;;17.95;4.70;;;;;;;;;;5059696;28;20085;-73
2023/08/13 00:10:56;;;;;;;16.75;5.28;;;;;;;;;;5059698;28;20018;-73
2023/08/13 00:13:22;;;;;;;14.75;4.72;;;;;;;;;;5042948;28;20192;-74
2023/08/13 00:15:48;;;;;;;16.42;5.10;;;;;;;;;;5033852;28;20026;-73
2023/08/13 00:18:14;;;;;;;14.57;5.05;;;;;;;;;;5033623;28;20033;-73
2023/08/13 00:20:40;;;;;;;16.30;4.60;;;;;;;;;;5033757;28;20378;-74
2023/08/13 00:23:06;;;;;;;14.57;4.70;;;;;;;;;;5033471;28;20021;-73
2023/08/13 00:25:32;;;;;;;16.20;4.30;;;;;;;;;;5033649;28;20071;-73
2023/08/13 00:27:58;;;;;;;12.90;4.05;;;;;;;;;;5033474;28;20104;-74
2023/08/13 00:30:24;;;;;;;16.00;4.70;;;;;;;;;;5033694;28;20036;-75
2023/08/13 00:32:50;;;;;;;18.25;4.40;;;;;;;;;;5033283;28;20029;-74
2023/08/13 00:35:16;;;;;;;14.20;4.70;;;;;;;;;;5033426;28;20108;-75
2023/08/13 00:37:42;;;;;;;13.05;4.85;;;;;;;;;;5033319;28;20079;-73
2023/08/13 00:40:08;;;;;;;15.55;4.63;;;;;;;;;;5033428;28;20030;-74
2023/08/13 00:42:34;;;;;;;16.42;4.30;;;;;;;;;;5033115;28;20475;-75
2023/08/13 00:45:00;;;;;;;18.90;4.47;;;;;;;;;;5033179;28;20037;-75
2023/08/13 00:47:27;;;;;;;17.38;5.03;;;;;;;;;;5033234;28;20025;-73
2023/08/13 00:49:53;;;;;;;21.02;5.53;;;;;;;;;;5033103;28;20475;-73
2023/08/13 00:52:19;;;;;;;18.52;4.75;;;;;;;;;;5032134;28;20033;-74
2023/08/13 00:54:45;;;;;;;14.85;4.70;;;;;;;;;;5032807;28;20018;-74
2023/08/13 00:57:11;;;;;;;17.05;4.50;;;;;;;;;;5032978;28;20021;-74
2023/08/13 00:59:37;;;;;;;12.95;4.38;;;;;;;;;;5032947;28;20464;-74
2023/08/13 01:02:03;;;;;;;19.42;4.45;;;;;;;;;;5032697;28;20096;-75
2023/08/13 01:04:29;;;;;;;16.73;4.80;;;;;;;;;;5032809;28;20021;-73
2023/08/13 01:07:12;;;;;;;15.55;4.80;;;;;;;;;;5032780;28;20097;-74
2023/08/13 01:09:56;;;;;;;15.05;4.38;;;;;;;;;;5032729;28;20033;-74
2023/08/13 01:12:23;;;;;;;16.63;4.78;;;;;;;;;;5032474;28;20029;-74
2023/08/13 01:14:58;;;;;;;18.90;5.15;;;;;;;;;;5033339;28;20041;-73
2023/08/13 01:17:25;;;;;;;17.65;4.97;;;;;;;;;;5032883;28;20112;-73
2023/08/13 01:19:50;;;;;;;15.75;4.50;;;;;;;;;;5033039;28;20017;-74
2023/08/13 01:22:17;;;;;;;14.35;4.82;;;;;;;;;;5031740;28;20017;-74
2023/08/13 01:24:43;;;;;;;15.30;4.18;;;;;;;;;;5033025;28;20018;-74
2023/08/13 01:27:15;;;;;;;13.07;4.50;;;;;;;;;;5032582;28;20497;-74
2023/08/13 01:29:44;;;;;;;13.07;4.63;;;;;;;;;;5032485;28;20116;-75
2023/08/13 01:32:12;;;;;;;15.27;4.57;;;;;;;;;;5032270;28;20105;-75
2023/08/13 01:34:38;;;;;;;11.55;4.32;;;;;;;;;;5032409;28;20446;-75
2023/08/13 01:37:05;;;;;;;12.55;4.68;;;;;;;;;;5032328;28;20471;-74
2023/08/13 01:39:31;;;;;;;16.77;5.10;;;;;;;;;;5032159;28;20563;-75
2023/08/13 01:41:57;;;;;;;14.60;4.70;;;;;;;;;;5031924;28;20025;-75
2023/08/13 01:44:23;;;;;;;11.63;4.38;;;;;;;;;;5035395;28;20383;-75
2023/08/13 01:46:49;;;;;;;20.77;5.03;;;;;;;;;;5044108;28;20029;-74
2023/08/13 01:49:15;;;;;;;14.73;4.38;;;;;;;;;;5050001;28;20064;-73
2023/08/13 01:51:41;;;;;;;16.05;4.35;;;;;;;;;;5050088;28;20053;-72
2023/08/13 01:54:07;;;;;;;15.45;4.63;;;;;;;;;;5049931;28;20033;-72
2023/08/13 01:56:33;;;;;;;17.75;4.45;;;;;;;;;;5048190;28;20041;-74
2023/08/13 01:58:59;;;;;;;18.33;4.78;;;;;;;;;;5032136;28;20091;-73
2023/08/13 02:01:26;;;;;;;13.00;5.03;;;;;;;;;;5032075;28;20499;-75
2023/08/13 02:03:52;;;;;;;13.80;4.60;;;;;;;;;;5031645;28;20014;-74
2023/08/13 02:06:18;;;;;;;19.58;4.68;;;;;;;;;;5031277;28;20068;-75
2023/08/13 02:08:44;;;;;;;15.38;4.00;;;;;;;;;;5030517;28;20054;-77
2023/08/13 02:11:10;;;;;;;13.25;4.45;;;;;;;;;;5030212;28;20033;-76
2023/08/13 02:13:36;;;;;;;18.65;5.03;;;;;;;;;;5044117;28;20071;-74
2023/08/13 02:16:05;;;;;;;19.38;5.18;;;;;;;;;;5052637;28;20037;-75
2023/08/13 02:18:32;;;;;;;15.55;4.15;;;;;;;;;;5052396;28;20041;-75
2023/08/13 02:20:58;;;;;;;16.58;4.72;;;;;;;;;;5052492;28;20029;-75
2023/08/13 02:23:24;;;;;;;16.75;4.47;;;;;;;;;;5052216;28;20032;-75
2023/08/13 02:25:50;;;;;;;18.85;4.15;;;;;;;;;;5034782;28;20104;-74
2023/08/13 02:28:16;;;;;;;15.65;4.38;;;;;;;;;;5032854;28;20037;-75
2023/08/13 02:30:42;;;;;;;20.23;5.07;;;;;;;;;;5032842;28;20079;-75
2023/08/13 02:33:08;;;;;;;18.05;4.43;;;;;;;;;;5032145;28;20026;-75
2023/08/13 02:35:34;;;;;;;19.10;4.18;;;;;;;;;;5046499;28;20145;-75
2023/08/13 02:38:00;;;;;;;15.38;3.85;;;;;;;;;;5051966;28;20037;-75
2023/08/13 02:40:26;;;;;;;24.60;5.20;;;;;;;;;;5052037;28;20499;-75
2023/08/13 02:42:52;;;;;;;12.30;3.85;;;;;;;;;;5051869;28;20044;-74
2023/08/13 02:45:18;;;;;;;16.13;4.40;;;;;;;;;;5052256;28;20033;-76
2023/08/13 02:47:44;;;;;;;13.07;3.92;;;;;;;;;;5052546;28;20021;-75
2023/08/13 02:50:10;;;;;;;14.63;4.15;;;;;;;;;;5053579;28;20497;-75
2023/08/13 02:52:36;;;;;;;13.75;3.78;;;;;;;;;;5053319;28;20025;-75
2023/08/13 02:55:02;;;;;;;17.08;3.92;;;;;;;;;;5053453;28;20040;-74
2023/08/13 02:57:28;;;;;;;14.07;4.40;;;;;;;;;;5053665;28;20037;-74
2023/08/13 02:59:54;;;;;;;12.43;4.00;;;;;;;;;;5050779;28;20111;-75
2023/08/13 03:02:20;;;;;;;12.85;4.20;;;;;;;;;;5034261;28;20018;-74
2023/08/13 03:04:46;;;;;;;13.07;4.15;;;;;;;;;;5034746;28;20057;-74
2023/08/13 03:07:12;;;;;;;21.08;4.88;;;;;;;;;;5035592;28;20040;-74
2023/08/13 03:09:38;;;;;;;17.33;4.43;;;;;;;;;;5035786;28;20514;-75
2023/08/13 03:12:04;;;;;;;15.70;3.90;;;;;;;;;;5035716;28;20025;-76
2023/08/13 03:14:30;;;;;;;20.48;4.80;;;;;;;;;;5036408;28;20040;-75
2023/08/13 03:16:56;;;;;;;19.08;4.63;;;;;;;;;;5039768;28;20487;-73
2023/08/13 03:19:22;;;;;;;20.58;5.07;;;;;;;;;;5043771;28;20089;-74
2023/08/13 03:21:48;;;;;;;14.00;3.67;;;;;;;;;;5035017;28;20128;-75
2023/08/13 03:24:15;;;;;;;18.83;4.45;;;;;;;;;;5035527;28;20511;-74
2023/08/13 03:26:41;;;;;;;16.33;4.22;;;;;;;;;;5056217;28;20018;-74
2023/08/13 03:29:07;;;;;;;21.27;4.88;;;;;;;;;;5046671;28;20032;-75
2023/08/13 03:31:33;;;;;;;25.48;5.25;;;;;;;;;;5043835;28;20081;-74
2023/08/13 03:33:59;;;;;;;16.27;4.55;;;;;;;;;;5059056;28;20069;-74
2023/08/13 03:36:25;;;;;;;14.63;4.05;;;;;;;;;;5059984;28;20024;-74
2023/08/13 03:38:51;;;;;;;14.60;4.25;;;;;;;;;;5059459;28;20076;-74
2023/08/13 03:41:17;;;;;;;16.52;4.35;;;;;;;;;;5054645;28;20040;-75
2023/08/13 03:43:43;;;;;;;13.07;3.90;;;;;;;;;;5036281;28;20022;-74
2023/08/13 03:46:09;;;;;;;21.33;4.57;;;;;;;;;;5036001;28;20052;-74
2023/08/13 03:48:35;;;;;;;13.30;3.38;;;;;;;;;;5035675;28;20056;-74
2023/08/13 03:51:03;;;;;;;24.02;4.45;;;;;;;;;;5037619;28;20025;-76
2023/08/13 03:53:29;;;;;;;18.00;4.78;;;;;;;;;;5033849;28;20460;-74
2023/08/13 03:55:55;;;;;;;13.55;3.80;;;;;;;;;;5034030;28;20026;-74
2023/08/13 03:58:21;;;;;;;13.35;3.88;;;;;;;;;;5031838;28;20039;-75
2023/08/13 04:00:47;;;;;;;14.88;4.13;;;;;;;;;;5033824;28;20025;-75
2023/08/13 04:03:13;;;;;;;20.75;3.90;;;;;;;;;;5033067;28;20021;-75
2023/08/13 04:05:39;;;;;;;15.82;3.88;;;;;;;;;;5033712;28;20037;-75
2023/08/13 04:08:05;;;;;;;16.42;3.90;;;;;;;;;;5034198;28;20057;-75
2023/08/13 04:10:31;;;;;;;17.83;3.50;;;;;;;;;;5037752;28;20325;-75
2023/08/13 04:13:00;;;;;;;18.15;4.82;;;;;;;;;;5033400;28;20039;-75
2023/08/13 04:15:26;;;;;;;19.05;4.57;;;;;;;;;;5034014;28;20045;-75
2023/08/13 04:17:52;;;;;;;18.13;3.83;;;;;;;;;;5034877;28;20064;-74
2023/08/13 04:20:18;;;;;;;25.20;4.72;;;;;;;;;;5034024;28;20057;-74
2023/08/13 04:22:45;;;;;;;14.63;4.20;;;;;;;;;;5033724;28;20018;-74
2023/08/13 04:25:11;;;;;;;16.33;3.72;;;;;;;;;;5034567;28;20018;-75
2023/08/13 04:27:37;;;;;;;15.13;4.30;;;;;;;;;;5032631;28;20051;-73
2023/08/13 04:30:04;;;;;;;17.02;4.32;;;;;;;;;;5033598;28;20056;-74
2023/08/13 04:32:31;;;;;;;23.02;7.93;;;;;;;;;;5033116;28;20053;-73
2023/08/13 04:34:57;;;;;;;19.10;4.18;;;;;;;;;;5033132;28;20488;-73
2023/08/13 04:37:23;;;;;;;23.23;4.88;;;;;;;;;;5033174;28;20543;-75
2023/08/13 04:39:49;;;;;;;16.08;4.72;;;;;;;;;;5033151;28;20342;-74
2023/08/13 04:42:16;;;;;;;16.23;3.90;;;;;;;;;;5032971;28;20018;-74
2023/08/13 04:44:42;;;;;;;14.88;4.07;;;;;;;;;;5033389;28;20029;-75
2023/08/13 04:47:08;;;;;;;22.20;4.13;;;;;;;;;;5020904;28;20522;-74
2023/08/13 04:49:34;;;;;;;15.15;3.92;;;;;;;;;;5037046;28;20040;-73
2023/08/13 04:52:00;;;;;;;14.30;3.42;;;;;;;;;;5038735;28;20375;-75
2023/08/13 04:54:25;;;;;;;17.85;4.25;;;;;;;;;;5033286;28;20025;-74
2023/08/13 04:56:51;;;;;;;16.70;4.13;;;;;;;;;;5033597;28;20036;-75
2023/08/13 04:59:17;;;;;;;12.30;3.78;;;;;;;;;;5033345;28;20044;-74
2023/08/13 05:01:43;;;;;;;20.27;4.28;;;;;;;;;;5032838;28;20029;-75
2023/08/13 05:04:09;;;;;;;13.27;4.05;;;;;;;;;;5033319;28;20028;-75
2023/08/13 05:06:35;;;;;;;23.45;4.88;;;;;;;;;;5032958;28;20489;-75
2023/08/13 05:09:01;;;;;;;16.92;4.25;;;;;;;;;;5036891;28;20084;-75
2023/08/13 05:11:28;;;;;;;12.77;3.53;;;;;;;;;;5038755;28;20514;-75
2023/08/13 05:13:54;;;;;;;14.07;4.05;;;;;;;;;;5023337;28;20025;-74
2023/08/13 05:16:20;;;;;;;17.17;4.15;;;;;;;;;;5038095;28;20044;-73
2023/08/13 05:18:46;;;;;;;19.30;4.50;;;;;;;;;;5049018;28;20525;-73
2023/08/13 05:21:12;;;;;;;12.43;3.40;;;;;;;;;;5044702;28;20084;-74
2023/08/13 05:23:38;;;;;;;16.73;3.65;;;;;;;;;;5053886;28;20048;-74
2023/08/13 05:26:04;;;;;;;21.05;3.97;;;;;;;;;;5055842;28;20021;-74
2023/08/13 05:28:30;;;;;;;12.73;4.00;;;;;;;;;;5032238;28;20025;-74
2023/08/13 05:30:56;;;;;;;14.27;4.07;;;;;;;;;;5031420;28;20040;-74
2023/08/13 05:33:22;;;;;;;19.65;4.10;;;;;;;;;;5029609;28;20112;-75
2023/08/13 05:35:48;;;;;;;17.55;3.67;;;;;;;;;;5039117;28;20026;-77
2023/08/13 05:38:14;;;;;;;15.75;3.65;;;;;;;;;;5039450;28;20037;-77
2023/08/13 05:40:39;;;;;;;18.35;4.32;;;;;;;;;;5048716;28;20089;-74
2023/08/13 05:43:05;;;;;;;18.10;4.05;;;;;;;;;;5048378;28;20360;-75
2023/08/13 05:45:32;;;;;;;23.88;4.25;;;;;;;;;;5038262;28;20028;-75
2023/08/13 05:48:00;;;;;;;16.38;3.50;;;;;;;;;;5039471;28;20017;-76
2023/08/13 05:50:26;;;;;;;19.10;4.63;;;;;;;;;;5032036;28;20506;-74
2023/08/13 05:52:52;;;;;;;17.80;3.58;;;;;;;;;;5024977;28;20105;-74
2023/08/13 05:55:18;;;;;;;16.10;3.70;;;;;;;;;;5036293;28;20029;-73
2023/08/13 05:57:44;;;;;;;16.58;4.00;;;;;;;;;;5036434;28;20040;-72
2023/08/13 06:00:10;;;;;;;17.48;4.30;;;;;;;;;;5035537;28;20029;-72
2023/08/13 06:02:36;;;;;;;14.27;3.90;;;;;;;;;;5031473;28;20079;-72
2023/08/13 06:05:03;;;;;;;13.57;3.50;;;;;;;;;;5031881;28;20105;-73
2023/08/13 06:07:29;;;;;;;17.52;3.92;;;;;;;;;;5032004;28;20359;-73
2023/08/13 06:09:55;;;;;;;15.15;3.78;;;;;;;;;;5031919;28;20021;-72
2023/08/13 06:12:21;;;;;;;15.35;3.55;;;;;;;;;;5031937;28;20026;-72
2023/08/13 06:14:47;;;;;;;17.02;4.25;;;;;;;;;;5031722;28;20056;-73
2023/08/13 06:17:13;;;;;;;25.23;6.35;;;;;;;;;;5031902;28;20025;-72
2023/08/13 06:19:39;;;;;;;18.80;4.18;;;;;;;;;;5032203;28;20037;-72
2023/08/13 06:22:05;;;;;;;19.73;3.88;;;;;;;;;;5031510;28;20029;-72
2023/08/13 06:24:31;;;;;;;15.75;3.45;;;;;;;;;;5031521;28;20097;-73
2023/08/13 06:26:57;;;;;;;11.15;3.10;;;;;;;;;;5031843;28;20029;-73
2023/08/13 06:29:23;;;;;;;16.42;3.42;;;;;;;;;;5032187;28;20072;-75
2023/08/13 06:31:49;;;;;;;10.52;3.17;;;;;;;;;;5031842;28;20033;-75
2023/08/13 06:34:15;;;;;;;22.50;4.80;;;;;;;;;;5031776;28;20650;-73
2023/08/13 06:36:41;;;;;;;21.50;8.88;;;;;;;;;;5031466;28;20034;-73
2023/08/13 06:39:08;;;;;;;17.30;4.45;;;;;;;;;;5031458;28;20510;-71
2023/08/13 06:41:34;;;;;;;17.80;3.67;;;;;;;;;;5031425;28;20028;-73
2023/08/13 06:44:00;;;;;;;15.32;4.32;;;;;;;;;;5031087;28;20026;-73
2023/08/13 06:46:26;;;;;;;22.05;4.40;;;;;;;;;;5030063;28;20067;-73
2023/08/13 06:48:52;;;;;;;16.00;3.45;;;;;;;;;;5031584;28;20426;-73
2023/08/13 06:51:18;;;;;;;14.23;3.80;;;;;;;;;;5031448;28;20116;-72
2023/08/13 06:53:44;;;;;;;25.20;4.03;;;;;;;;;;5032555;28;20356;-72
2023/08/13 06:56:10;;;;;;;20.15;4.25;;;;;;;;;;5034277;28;20065;-72
2023/08/13 06:58:36;;;;;;;24.08;4.70;;;;;;;;;;5034240;28;20034;-73
2023/08/13 07:01:03;;;;;;;14.25;3.80;;;;;;;;;;5034288;28;20103;-74
2023/08/13 07:03:29;;;;;;;14.15;3.67;;;;;;;;;;5034636;28;20502;-73
2023/08/13 07:05:55;;;;;;;16.58;3.97;;;;;;;;;;5034065;28;20459;-73
2023/08/13 07:08:22;;;;;;;21.02;4.50;;;;;;;;;;5034168;28;20061;-74
2023/08/13 07:10:48;;;;;;;15.93;3.83;;;;;;;;;;5034451;28;20044;-73
2023/08/13 07:13:15;;;;;;;14.52;3.90;;;;;;;;;;5033527;28;20037;-73
2023/08/13 07:15:40;;;;;;;17.85;4.05;;;;;;;;;;5033882;28;20021;-73
2023/08/13 07:18:07;;;;;;;16.63;3.78;;;;;;;;;;5034113;28;20029;-72
2023/08/13 07:20:33;;;;;;;20.83;3.67;;;;;;;;;;5035059;28;20024;-72
2023/08/13 07:23:00;;;;;;;16.42;4.07;;;;;;;;;;5039156;28;20408;-73
2023/08/13 07:25:26;;;;;;;17.20;5.50;;;;;;;;;;5034224;28;20281;-73
2023/08/13 07:27:52;;;;;;;19.40;4.40;;;;;;;;;;5032447;28;20029;-73
2023/08/13 07:30:18;;;;;;;15.60;4.72;;;;;;;;;;5035575;28;20035;-73
2023/08/13 07:32:44;;;;;;;18.70;4.82;;;;;;;;;;5037555;28;20116;-77
2023/08/13 07:35:12;;;;;;;23.27;4.93;;;;;;;;;;5037537;28;20025;-76
2023/08/13 07:37:38;;;;;;;25.65;4.80;;;;;;;;;;5036155;28;20406;-77
2023/08/13 07:40:07;;;;;;;22.67;4.78;;;;;;;;;;5034468;28;20025;-73
2023/08/13 07:42:34;;;;;;;17.95;5.15;;;;;;;;;;5033887;28;20028;-74
2023/08/13 07:45:01;;;;;;;19.35;4.07;;;;;;;;;;5033450;28;20120;-73
2023/08/13 07:47:27;;;;;;;16.17;3.50;;;;;;;;;;5033466;28;20017;-74
2023/08/13 07:49:53;;;;;;;16.35;4.20;;;;;;;;;;5034269;28;20476;-72
2023/08/13 07:52:19;;;;;;;21.88;3.92;;;;;;;;;;5038233;28;20456;-75
2023/08/13 07:54:45;;;;;;;25.85;4.70;;;;;;;;;;5035842;28;20033;-74
2023/08/13 07:57:10;;;;;;;14.07;4.00;;;;;;;;;;5033301;28;20163;-75
2023/08/13 07:59:36;;;;;;;15.88;4.00;;;;;;;;;;5034464;28;20036;-73
2023/08/13 08:02:03;;;;;;;24.27;4.22;;;;;;;;;;5033778;28;20022;-74
2023/08/13 08:04:29;;;;;;;20.17;3.95;;;;;;;;;;5034211;28;20025;-74
2023/08/13 08:06:55;;;;;;;13.27;3.55;;;;;;;;;;5034255;28;20100;-73
2023/08/13 08:09:21;;;;;;;15.55;2.92;;;;;;;;;;5034271;28;20112;-75
2023/08/13 08:11:47;;;;;;;14.05;3.10;;;;;;;;;;5033736;28;20037;-73
2023/08/13 08:14:13;;;;;;;21.27;4.97;;;;;;;;;;5031959;28;20033;-73
2023/08/13 08:16:39;;;;;;;13.50;3.20;;;;;;;;;;5032800;28;20029;-73
2023/08/13 08:19:05;;;;;;;17.23;3.50;;;;;;;;;;5032459;28;20499;-73
2023/08/13 08:21:31;;;;;;;14.43;3.40;;;;;;;;;;5032692;28;20025;-73
2023/08/13 08:23:57;;;;;;;16.52;3.63;;;;;;;;;;5031958;28;20022;-74
2023/08/13 08:26:23;;;;;;;22.30;3.90;;;;;;;;;;5032120;28;20097;-72
2023/08/13 08:28:50;;;;;;;16.80;3.22;;;;;;;;;;5032738;28;20087;-73
2023/08/13 08:31:16;;;;;;;14.55;3.63;;;;;;;;;;5032805;28;20212;-73
2023/08/13 08:33:42;;;;;;;16.13;3.58;;;;;;;;;;5032245;28;20364;-73
2023/08/13 08:36:08;;;;;;;12.20;3.17;;;;;;;;;;5032912;28;20033;-73
2023/08/13 08:38:34;;;;;;;19.80;3.28;;;;;;;;;;5032343;28;20029;-74
2023/08/13 08:41:00;;;;;;;14.10;3.15;;;;;;;;;;5032154;28;20077;-72
2023/08/13 08:43:29;;;;;;;23.83;4.38;;;;;;;;;;5031479;28;20029;-73
2023/08/13 08:45:56;;;;;;;13.23;3.60;;;;;;;;;;5032245;28;20032;-74
2023/08/13 08:48:22;;;;;;;19.55;3.67;;;;;;;;;;5033387;28;20033;-75
2023/08/13 08:50:48;;;;;;;15.52;3.10;;;;;;;;;;5035135;28;20030;-74
2023/08/13 08:53:15;;;;;;;19.58;3.40;;;;;;;;;;5041650;28;20036;-73
2023/08/13 08:55:41;;;;;;;13.18;2.72;;;;;;;;;;5033336;28;20072;-73
2023/08/13 08:58:07;;;;;;;15.98;3.63;;;;;;;;;;5032122;28;20025;-73
2023/08/13 09:00:33;;;;;;;9.80;2.67;;;;;;;;;;5032176;28;20440;-74
2023/08/13 09:02:59;;;;;;;17.90;3.20;;;;;;;;;;5032046;28;20028;-75
2023/08/13 09:05:26;;;;;;;15.00;3.05;;;;;;;;;;5031797;28;20032;-73
2023/08/13 09:07:52;;;;;;;12.38;2.63;;;;;;;;;;5031704;28;20448;-75
2023/08/13 09:10:18;;;;;;;16.40;3.03;;;;;;;;;;5031888;28;20065;-74
2023/08/13 09:12:44;;;;;;;15.73;3.40;;;;;;;;;;5031509;28;20018;-74
2023/08/13 09:15:11;;;;;;;10.27;2.53;;;;;;;;;;5031282;28;20483;-74
2023/08/13 09:17:38;;;;;;;14.90;2.83;;;;;;;;;;5032323;28;20025;-73
2023/08/13 09:20:10;;;;;;;12.68;3.13;;;;;;;;;;5032643;28;20026;-73
2023/08/13 09:22:36;;;;;;;12.82;2.67;;;;;;;;;;5032389;28;20056;-75
2023/08/13 09:25:02;;;;;;;11.40;2.80;;;;;;;;;;5032441;28;20475;-74
2023/08/13 09:27:29;;;;;;;14.27;3.63;;;;;;;;;;5032782;28;20470;-75
2023/08/13 09:29:58;;;;;;;11.27;2.65;;;;;;;;;;5032683;28;20022;-75
2023/08/13 09:32:24;;;;;;;11.30;2.33;;;;;;;;;;5032436;28;20109;-74
2023/08/13 09:34:53;;;;;;;11.60;3.20;;;;;;;;;;5032548;28;20061;-73
2023/08/13 09:37:19;;;;;;;12.00;2.30;;;;;;;;;;5032442;28;20372;-73
2023/08/13 09:39:46;;;;;;;14.80;2.80;;;;;;;;;;5032770;28;20025;-79
2023/08/13 09:42:13;;;;;;;11.65;2.42;;;;;;;;;;5033856;28;20025;-75
2023/08/13 09:44:40;;;;;;;15.00;3.38;;;;;;;;;;5032609;28;20029;-75
2023/08/13 09:47:07;;;;;;;13.70;2.65;;;;;;;;;;5032518;28;20033;-77
2023/08/13 09:49:34;;;;;;;16.63;2.90;;;;;;;;;;5032099;28;20034;-75
2023/08/13 09:52:01;;;;;;;14.35;2.70;;;;;;;;;;5029858;28;20112;-74
2023/08/13 09:54:29;;;;;;;16.33;2.70;;;;;;;;;;5030156;28;20056;-74
2023/08/13 09:57:02;;;;;;;13.02;2.60;;;;;;;;;;5031132;28;20479;-73
2023/08/13 09:59:29;;;;;;;16.52;2.88;;;;;;;;;;5029329;28;20021;-76
2023/08/13 10:01:55;;;;;;;14.70;2.65;;;;;;;;;;5029495;28;20022;-74
2023/08/13 10:04:22;;;;;;;10.80;2.75;;;;;;;;;;5027806;28;20021;-74
2023/08/13 10:06:50;;;;;;;10.55;2.45;;;;;;;;;;5030092;28;20029;-74
2023/08/13 10:09:16;;;;;;;11.90;2.60;;;;;;;;;;5030202;28;20025;-73
2023/08/13 10:11:42;;;;;;;14.10;2.53;;;;;;;;;;5031695;28;20167;-75
2023/08/13 10:14:08;;;;;;;9.55;2.22;;;;;;;;;;5031648;28;20124;-74
2023/08/13 10:16:34;;;;;;;14.73;2.60;;;;;;;;;;5032544;28;20079;-76
2023/08/13 10:19:01;;;;;;;11.75;2.00;;;;;;;;;;5032980;28;20125;-75
2023/08/13 10:21:37;;;;;;;8.38;2.20;;;;;;;;;;5031638;28;20514;-75
2023/08/13 10:24:04;;;;;;;10.45;2.80;;;;;;;;;;5031310;28;20072;-75
2023/08/13 10:26:30;;;;;;;11.38;2.40;;;;;;;;;;5033751;28;20049;-75
2023/08/13 10:28:56;;;;;;;10.27;1.92;;;;;;;;;;5035706;28;20035;-74
2023/08/13 10:31:22;;;;;;;10.23;2.42;;;;;;;;;;5035827;28;20108;-75
2023/08/13 10:33:47;;;;;;;8.73;1.92;;;;;;;;;;5035180;28;20029;-74
2023/08/13 10:36:13;;;;;;;10.68;2.10;;;;;;;;;;5033833;28;20025;-74
2023/08/13 10:38:39;;;;;;;12.25;1.98;;;;;;;;;;5033717;28;20032;-76
2023/08/13 10:41:06;;;;;;;9.48;2.38;;;;;;;;;;5034131;28;20049;-74
2023/08/13 10:43:33;;;;;;;11.00;2.50;;;;;;;;;;5033307;28;20025;-74
2023/08/13 10:45:59;;;;;;;10.27;1.95;;;;;;;;;;5033727;28;20030;-73
2023/08/13 10:48:30;;;;;;;8.52;1.85;;;;;;;;;;5034042;28;20033;-75
2023/08/13 10:50:57;;;;;;;7.30;2.13;;;;;;;;;;5034640;28;20112;-75
2023/08/13 10:53:26;;;;;;;10.20;2.47;;;;;;;;;;5035571;28;20025;-75
2023/08/13 10:55:55;;;;;;;13.57;2.28;;;;;;;;;;5035825;28;20018;-75
2023/08/13 10:58:26;;;;;;;11.38;2.58;;;;;;;;;;5034396;28;20043;-74
2023/08/13 11:00:52;;;;;;;10.20;1.92;;;;;;;;;;5033043;28;20384;-75
2023/08/13 11:03:19;;;;;;;7.85;2.10;;;;;;;;;;5034713;28;20033;-75
2023/08/13 11:05:46;;;;;;;8.07;1.98;;;;;;;;;;5036078;28;20022;-75
2023/08/13 11:08:15;;;;;;;7.50;1.77;;;;;;;;;;5035999;28;20518;-75
2023/08/13 11:10:42;;;;;;;8.07;2.05;;;;;;;;;;5035032;28;20060;-75
2023/08/13 11:13:09;;;;;;;12.52;2.30;;;;;;;;;;5033535;28;20032;-74
2023/08/13 11:15:35;;;;;;;10.32;2.20;;;;;;;;;;5033582;28;20036;-74
2023/08/13 11:18:01;;;;;;;10.93;2.40;;;;;;;;;;5033264;28;20029;-74
2023/08/13 11:20:27;;;;;;;10.23;3.35;;;;;;;;;;5033437;28;20029;-76
2023/08/13 11:22:53;;;;;;;9.90;2.10;;;;;;;;;;5032781;28;20113;-75
2023/08/13 11:25:19;;;;;;;7.00;1.92;;;;;;;;;;5033449;28;20568;-74
2023/08/13 11:27:45;;;;;;;7.97;2.03;;;;;;;;;;5033182;28;20017;-75
2023/08/13 11:30:11;;;;;;;7.47;1.85;;;;;;;;;;5033525;28;20018;-74
2023/08/13 11:32:37;;;;;;;8.38;1.92;;;;;;;;;;5034182;28;20045;-75
2023/08/13 11:35:05;;;;;;;9.68;2.08;;;;;;;;;;5037134;28;20025;-76
2023/08/13 11:37:31;;;;;;;8.93;1.83;;;;;;;;;;5037438;28;20075;-79
2023/08/13 11:39:57;;;;;;;4.97;1.70;;;;;;;;;;5035956;28;20383;-75
2023/08/13 11:42:23;;;;;;;8.68;2.05;;;;;;;;;;5035188;28;20383;-75
2023/08/13 11:44:49;;;;;;;10.50;2.08;;;;;;;;;;5035828;28;20029;-75
2023/08/13 11:47:23;;;;;;;7.70;1.80;;;;;;;;;;5034673;28;20454;-74
2023/08/13 11:49:49;;;;;;;4.90;1.65;;;;;;;;;;5035416;28;20030;-73
2023/08/13 11:52:18;;;;;;;5.60;1.75;;;;;;;;;;5034980;28;20030;-74
2023/08/13 11:54:44;;;;;;;8.52;1.67;;;;;;;;;;5034278;28;20506;-77
2023/08/13 11:57:10;;;;;;;7.25;1.70;;;;;;;;;;5034033;28;20099;-72
2023/08/13 11:59:37;;;;;;;6.75;1.48;;;;;;;;;;5034584;28;20033;-76
2023/08/13 12:02:03;;;;;;;7.10;1.70;;;;;;;;;;5034295;28;20537;-75
2023/08/13 12:04:32;;;;;;;6.40;2.15;;;;;;;;;;5033264;28;20083;-73
2023/08/13 12:06:59;;;;;;;4.75;1.40;;;;;;;;;;5033941;28;20057;-73
2023/08/13 12:09:25;;;;;;;6.50;1.75;;;;;;;;;;5032669;28;20471;-74
2023/08/13 12:11:53;;;;;;;11.82;1.50;;;;;;;;;;5032584;28;20117;-74
2023/08/13 12:14:19;;;;;;;10.18;2.38;;;;;;;;;;5033189;28;20033;-75
2023/08/13 12:16:45;;;;;;;8.20;1.75;;;;;;;;;;5033548;28;20060;-74
2023/08/13 12:19:11;;;;;;;8.35;1.75;;;;;;;;;;5033500;28;20025;-72
2023/08/13 12:21:37;;;;;;;5.20;1.58;;;;;;;;;;5033435;28;20032;-74
2023/08/13 12:24:04;;;;;;;11.40;2.00;;;;;;;;;;5032876;28;20029;-75
2023/08/13 12:26:30;;;;;;;8.32;2.35;;;;;;;;;;5033306;28;20431;-74
2023/08/13 12:28:56;;;;;;;7.82;2.20;;;;;;;;;;5033435;28;20033;-75
2023/08/13 12:31:24;;;;;;;8.50;2.40;;;;;;;;;;5033460;28;20156;-73
2023/08/13 12:33:50;;;;;;;7.22;2.15;;;;;;;;;;5032527;28;20105;-75
2023/08/13 12:36:16;;;;;;;10.85;4.20;;;;;;;;;;5033338;28;20059;-73
2023/08/13 12:38:42;;;;;;;9.90;3.80;;;;;;;;;;5033115;28;20349;-74
2023/08/13 12:41:09;;;;;;;12.18;5.78;;;;;;;;;;5033053;28;20037;-74
2023/08/13 12:43:36;;;;;;;6.97;2.08;;;;;;;;;;5032176;28;20542;-75
2023/08/13 12:46:02;;;;;;;18.05;5.18;;;;;;;;;;5032955;28;20381;-74
2023/08/13 12:48:28;;;;;;;6.45;2.08;;;;;;;;;;5032841;28;20109;-74
2023/08/13 12:50:55;;;;;;;8.68;3.15;;;;;;;;;;5034273;28;20076;-75
2023/08/13 12:53:21;;;;;;;6.90;1.80;;;;;;;;;;5034419;28;20073;-75
2023/08/13 12:55:47;;;;;;;6.78;2.17;;;;;;;;;;5036870;28;20096;-75
2023/08/13 12:58:13;;;;;;;6.05;1.20;;;;;;;;;;5036460;28;20456;-78
2023/08/13 13:00:39;;;;;;;5.15;1.65;;;;;;;;;;5036583;28;20075;-75
2023/08/13 13:03:06;;;;;;;7.93;2.08;;;;;;;;;;5035168;28;20026;-74
2023/08/13 13:05:32;;;;;;;8.23;2.00;;;;;;;;;;5034869;28;20502;-76
2023/08/13 13:07:58;;;;;;;9.00;1.52;;;;;;;;;;5032757;28;20022;-74
2023/08/13 13:10:24;;;;;;;5.95;1.70;;;;;;;;;;5034127;28;20510;-74
2023/08/13 13:12:50;;;;;;;8.65;1.38;;;;;;;;;;5033527;28;20104;-73
2023/08/13 13:15:16;;;;;;;5.28;1.98;;;;;;;;;;5035204;28;20040;-74
2023/08/13 13:17:42;;;;;;;6.65;1.50;;;;;;;;;;5033905;28;20458;-76
2023/08/13 13:20:11;;;;;;;11.02;1.95;;;;;;;;;;5032345;28;20041;-75
2023/08/13 13:22:37;;;;;;;7.25;1.60;;;;;;;;;;5032187;28;20045;-75
2023/08/13 13:25:04;;;;;;;8.82;1.60;;;;;;;;;;5033079;28;20033;-76
2023/08/13 13:27:30;;;;;;;4.63;1.27;;;;;;;;;;5032791;28;20376;-74
2023/08/13 13:29:56;;;;;;;5.68;1.70;;;;;;;;;;5032233;28;20036;-74
2023/08/13 13:32:22;;;;;;;5.43;1.60;;;;;;;;;;5031886;28;20079;-75
2023/08/13 13:34:48;;;;;;;6.20;1.60;;;;;;;;;;5031449;28;20033;-78
2023/08/13 13:37:14;;;;;;;4.28;1.20;;;;;;;;;;5030713;28;20056;-75
2023/08/13 13:39:40;;;;;;;10.82;2.20;;;;;;;;;;5033086;28;20437;-74
2023/08/13 13:42:06;;;;;;;5.55;1.50;;;;;;;;;;5032710;28;20128;-74
2023/08/13 13:44:32;;;;;;;6.80;1.92;;;;;;;;;;5033762;28;20025;-76
2023/08/13 13:46:58;;;;;;;9.57;2.08;;;;;;;;;;5032472;28;20030;-76
2023/08/13 13:49:24;;;;;;;6.47;1.65;;;;;;;;;;5031597;28;20547;-75
2023/08/13 13:51:50;;;;;;;4.80;1.50;;;;;;;;;;5031800;28;20037;-77
2023/08/13 13:54:16;;;;;;;4.93;1.17;;;;;;;;;;5032375;28;20395;-75
2023/08/13 13:56:42;;;;;;;3.67;1.30;;;;;;;;;;5033138;28;20028;-78
2023/08/13 13:59:08;;;;;;;4.45;1.40;;;;;;;;;;5031712;28;20037;-77
2023/08/13 14:01:34;;;;;;;6.60;1.92;;;;;;;;;;5032130;28;20036;-76
2023/08/13 14:04:00;;;;;;;4.13;1.05;;;;;;;;;;5031192;28;20040;-76
2023/08/13 14:06:26;;;;;;;9.80;1.58;;;;;;;;;;5031741;28;20025;-77
2023/08/13 14:08:52;;;;;;;5.53;1.20;;;;;;;;;;5031820;28;20029;-76
2023/08/13 14:11:18;;;;;;;3.88;1.30;;;;;;;;;;5032055;28;20036;-76
2023/08/13 14:13:44;;;;;;;3.28;1.15;;;;;;;;;;5030950;28;20029;-78
2023/08/13 14:16:10;;;;;;;8.98;1.52;;;;;;;;;;5031781;28;20419;-79
2023/08/13 14:18:36;;;;;;;7.13;1.55;;;;;;;;;;5031606;28;20037;-78
2023/08/13 14:21:02;;;;;;;5.88;1.52;;;;;;;;;;5031543;28;20053;-76
2023/08/13 14:23:28;;;;;;;5.00;1.30;;;;;;;;;;5031306;28;20045;-79
2023/08/13 14:25:54;;;;;;;5.22;1.38;;;;;;;;;;5034031;28;20045;-76
2023/08/13 14:28:20;;;;;;;6.47;1.48;;;;;;;;;;5032607;28;20148;-78